createdAt,value
2019-04-22T00:04:50.782Z,34.10
2019-04-22T00:10:38.848Z,34.00
2019-04-22T00:15:09.590Z,32.90
2019-04-22T00:20:29.770Z,33.20
2019-04-22T00:25:11.689Z,33.20
2019-04-22T00:30:12.830Z,35.10
2019-04-22T00:34:33.682Z,34.00
2019-04-22T00:39:40.793Z,35.20
2019-04-22T00:44:38.447Z,36.40
2019-04-22T00:49:35.402Z,36.70
2019-04-22T00:53:54.137Z,35.70
2019-04-22T00:59:12.639Z,36.80
2019-04-22T01:03:55.270Z,36.60
2019-04-22T01:23:17.795Z,37.40
2019-04-22T01:27:48.485Z,38.40
2019-04-22T01:31:49.217Z,37.30
2019-04-22T01:37:34.196Z,39.60
2019-04-22T01:42:55.596Z,38.20
2019-04-22T01:52:51.890Z,37.30
2019-04-22T01:56:52.254Z,37.60
2019-04-22T02:02:21.977Z,44.10
2019-04-22T02:07:09.161Z,40.50
2019-04-22T02:12:05.681Z,40.30
2019-04-22T02:17:01.127Z,43.20
2019-04-22T02:21:35.274Z,43.70
2019-04-22T02:26:54.074Z,42.70
2019-04-22T02:31:48.631Z,42.70
2019-04-22T02:37:02.311Z,43.00
2019-04-22T02:41:40.665Z,43.80
2019-04-22T02:55:31.732Z,44.80
2019-04-22T03:00:56.114Z,47.40
2019-04-22T03:05:17.392Z,47.30
2019-04-22T03:10:06.439Z,48.40
2019-04-22T03:15:29.592Z,48.60
2019-04-22T03:20:03.802Z,46.40
2019-04-22T03:25:49.314Z,46.90
2019-04-22T03:35:35.798Z,47.90
2019-04-22T03:40:11.620Z,48.10
2019-04-22T03:44:23.212Z,49.50
2019-04-22T03:49:54.086Z,48.10
2019-04-22T03:53:47.887Z,47.90
2019-04-22T03:58:36.574Z,51.30
2019-04-22T04:08:32.633Z,53.10
2019-04-22T04:13:38.993Z,53.30
2019-04-22T04:17:59.103Z,51.70
2019-04-22T04:23:16.441Z,50.30
2019-04-22T04:33:37.824Z,51.40
2019-04-22T04:37:54.813Z,52.50
2019-04-22T04:42:45.574Z,49.60
2019-04-22T04:47:59.838Z,49.60
2019-04-22T04:53:05.857Z,49.20
2019-04-22T04:56:55.754Z,52.90
2019-04-22T05:02:19.508Z,50.70
2019-04-22T05:07:17.592Z,48.50
2019-04-22T05:11:51.729Z,44.80
2019-04-22T05:21:11.983Z,36.50
2019-04-22T05:30:53.286Z,18.90
2019-04-22T05:35:53.199Z,15.90
2019-04-22T05:45:42.817Z,11.40
2019-04-22T05:50:07.414Z,9.50
2019-04-22T05:54:46.670Z,10.10
2019-04-22T06:00:40.235Z,11.60
2019-04-22T06:04:58.113Z,12.70
2019-04-22T06:09:31.898Z,14.00
2019-04-22T06:14:30.622Z,14.80
2019-04-22T06:19:44.012Z,16.00
2019-04-22T06:24:55.103Z,15.60
2019-04-22T06:29:36.392Z,15.80
2019-04-22T06:34:10.153Z,15.50
2019-04-22T06:39:14.139Z,15.40
2019-04-22T06:43:34.779Z,16.20
2019-04-22T06:49:02.590Z,15.80
2019-04-22T06:53:53.498Z,16.20
2019-04-22T07:04:02.612Z,15.30
2019-04-22T07:12:48.397Z,15.90
2019-04-22T07:17:42.017Z,15.70
2019-04-22T07:22:39.639Z,15.00
2019-04-22T07:27:51.972Z,14.60
2019-04-22T07:33:11.221Z,12.50
2019-04-22T07:37:31.214Z,12.70
2019-04-22T07:47:13.293Z,9.50
2019-04-22T07:51:43.465Z,10.10
2019-04-22T07:57:08.508Z,9.00
2019-04-22T08:02:01.772Z,8.90
2019-04-22T08:07:03.141Z,8.50
2019-04-22T08:16:09.629Z,7.60
2019-04-22T08:21:29.356Z,7.80
2019-04-22T08:25:54.102Z,6.30
2019-04-22T08:30:53.447Z,5.20
2019-04-22T08:36:05.949Z,7.30
2019-04-22T08:41:04.573Z,7.80
2019-04-22T08:45:43.909Z,4.70
2019-04-22T08:50:44.054Z,6.30
2019-04-22T08:55:03.480Z,4.10
2019-04-22T08:59:54.223Z,4.00
2019-04-22T09:04:47.848Z,1.40
2019-04-22T09:09:44.272Z,1.60
2019-04-22T09:14:31.076Z,1.80
2019-04-22T09:19:16.491Z,2.40
2019-04-22T09:24:22.918Z,1.00
2019-04-22T09:33:47.468Z,1.00
2019-04-22T09:38:52.442Z,1.00
2019-04-22T09:43:51.979Z,1.00
2019-04-22T09:48:49.997Z,1.00
2019-04-22T09:53:28.410Z,1.00
2019-04-22T09:58:39.265Z,1.00
2019-04-22T10:03:36.132Z,1.00
2019-04-22T10:22:31.926Z,1.00
2019-04-22T10:27:39.340Z,1.00
2019-04-22T10:32:35.170Z,1.00
2019-04-22T10:36:14.866Z,1.00
2019-04-22T10:41:05.263Z,1.00
2019-04-22T10:45:57.823Z,1.00
2019-04-22T10:50:52.510Z,1.00
2019-04-22T10:55:48.982Z,1.00
2019-04-22T11:00:35.283Z,1.00
2019-04-22T11:05:26.612Z,1.00
2019-04-22T11:11:06.759Z,1.00
2019-04-22T11:15:09.450Z,1.00
2019-04-22T11:19:59.971Z,1.00
2019-04-22T11:24:54.741Z,1.00
2019-04-22T11:29:47.657Z,1.00
2019-04-22T11:34:40.542Z,1.00
2019-04-22T11:39:38.401Z,1.00
2019-04-22T11:44:25.277Z,1.00
2019-04-22T11:49:16.431Z,1.00
2019-04-22T11:54:07.667Z,1.00
2019-04-22T11:58:57.727Z,1.00
2019-04-22T12:03:51.636Z,1.00
2019-04-22T12:08:43.376Z,1.00
2019-04-22T12:13:31.906Z,1.00
2019-04-22T12:18:25.308Z,1.00
2019-04-22T12:23:16.645Z,1.00
2019-04-22T12:28:06.117Z,1.00
2019-04-22T12:33:00.074Z,1.00
2019-04-22T12:38:06.213Z,1.00
2019-04-22T12:42:41.999Z,1.00
2019-04-22T12:47:34.029Z,1.00
2019-04-22T12:52:50.443Z,1.00
2019-04-22T12:57:16.988Z,1.00
2019-04-22T13:02:09.073Z,1.00
2019-04-22T13:06:59.397Z,1.00
2019-04-22T13:11:52.628Z,1.00
2019-04-22T13:16:42.608Z,1.00
2019-04-22T13:21:33.227Z,1.00
2019-04-22T13:26:25.176Z,1.00
2019-04-22T13:31:15.852Z,1.00
2019-04-22T13:36:08.177Z,1.00
2019-04-22T13:41:30.979Z,1.00
2019-04-22T13:45:49.671Z,1.00
2019-04-22T13:56:23.570Z,1.00
2019-04-22T14:00:24.525Z,1.00
2019-04-22T14:05:16.654Z,1.00
2019-04-22T14:10:06.918Z,1.00
2019-04-22T14:15:00.174Z,1.00
2019-04-22T14:19:48.992Z,1.00
2019-04-22T14:24:42.363Z,1.00
2019-04-22T14:29:33.224Z,1.00
2019-04-22T14:34:24.121Z,1.00
2019-04-22T14:39:13.668Z,1.00
2019-04-22T14:46:02.577Z,1.00
2019-04-22T14:49:47.075Z,1.00
2019-04-22T14:54:37.267Z,1.00
2019-04-22T14:58:40.537Z,1.00
2019-04-22T15:03:33.552Z,1.00
2019-04-22T15:08:21.972Z,1.00
2019-04-22T15:13:15.329Z,1.00
2019-04-22T15:18:06.242Z,1.00
2019-04-22T15:22:57.127Z,1.00
2019-04-22T15:27:48.306Z,1.00
2019-04-22T15:32:39.532Z,1.00
2019-04-22T15:37:33.736Z,1.00
2019-04-22T15:42:38.130Z,1.00
2019-04-22T15:47:15.096Z,1.00
2019-04-22T15:52:08.385Z,1.00
2019-04-22T15:56:57.317Z,1.00
2019-04-22T16:01:50.457Z,1.00
2019-04-22T16:06:40.993Z,1.00
2019-04-22T16:11:30.214Z,1.00
2019-04-22T16:16:24.758Z,1.00
2019-04-22T16:21:48.938Z,1.00
2019-04-22T16:26:09.637Z,1.00
2019-04-22T16:30:59.808Z,1.00
2019-04-22T16:35:50.780Z,1.00
2019-04-22T16:40:42.636Z,1.00
2019-04-22T16:45:33.518Z,1.00
2019-04-22T16:50:25.048Z,1.00
2019-04-22T16:55:15.229Z,1.00
2019-04-22T17:00:08.761Z,1.00
2019-04-22T17:04:59.362Z,1.00
2019-04-22T17:09:51.805Z,1.00
2019-04-22T17:15:02.637Z,1.00
2019-04-22T17:19:35.100Z,1.00
2019-04-22T17:24:25.665Z,1.00
2019-04-22T17:29:14.917Z,1.00
2019-04-22T17:34:07.380Z,1.00
2019-04-22T17:39:40.959Z,1.00
2019-04-22T17:45:15.538Z,1.00
2019-04-22T17:49:36.953Z,1.00
2019-04-22T17:54:47.722Z,1.00
2019-04-22T17:59:32.044Z,1.00
2019-04-22T18:03:47.322Z,1.00
2019-04-22T18:09:00.239Z,1.00
2019-04-22T18:14:40.972Z,1.00
2019-04-22T18:18:59.429Z,1.00
2019-04-22T18:23:11.921Z,1.00
2019-04-22T18:28:53.900Z,1.00
2019-04-22T18:33:28.545Z,1.00
2019-04-22T18:43:03.251Z,1.00
2019-04-22T18:47:52.661Z,1.00
2019-04-22T18:57:36.960Z,1.00
2019-04-22T19:02:15.579Z,1.00
2019-04-22T19:08:06.552Z,1.00
2019-04-22T19:13:34.450Z,1.00
2019-04-22T19:18:01.572Z,1.00
2019-04-22T19:22:29.423Z,1.00
2019-04-22T19:27:24.628Z,1.00
2019-04-22T19:32:19.321Z,1.00
2019-04-22T19:37:06.917Z,1.00
2019-04-22T19:42:16.580Z,1.00
2019-04-22T19:46:34.223Z,1.00
2019-04-22T19:56:17.355Z,1.00
2019-04-22T20:00:50.566Z,1.00
2019-04-22T20:06:14.233Z,1.00
2019-04-22T20:10:49.869Z,1.00
2019-04-22T20:15:36.936Z,1.50
2019-04-22T20:20:40.041Z,2.30
2019-04-22T20:25:10.613Z,2.50
2019-04-22T20:30:28.063Z,2.70
2019-04-22T20:35:50.158Z,3.10
2019-04-22T20:40:33.006Z,3.50
2019-04-22T20:54:34.752Z,5.80
2019-04-22T20:59:47.955Z,5.30
2019-04-22T21:03:59.643Z,7.00
2019-04-22T21:09:37.569Z,7.30
2019-04-22T21:18:51.452Z,8.00
2019-04-22T21:23:45.466Z,8.30
2019-04-22T21:33:42.688Z,8.80
2019-04-22T21:38:52.888Z,8.80
2019-04-22T21:48:19.816Z,9.30
2019-04-22T21:58:17.632Z,9.20
2019-04-22T22:03:18.582Z,9.20
2019-04-22T22:17:27.111Z,9.60
2019-04-22T22:23:07.689Z,9.80
2019-04-22T22:27:35.184Z,9.70
2019-04-22T22:32:29.590Z,9.80
2019-04-22T22:37:01.337Z,9.90
2019-04-22T22:40:56.282Z,10.20
2019-04-22T22:46:22.630Z,10.10
2019-04-22T22:51:33.815Z,10.20
2019-04-22T22:56:36.655Z,10.20
2019-04-22T23:01:29.750Z,10.30
2019-04-22T23:06:44.026Z,10.00
2019-04-22T23:11:30.808Z,10.20
2019-04-22T23:15:49.959Z,9.90
2019-04-22T23:19:59.380Z,9.80
2019-04-22T23:25:32.631Z,9.80
2019-04-22T23:30:05.202Z,9.70
2019-04-22T23:35:22.405Z,9.40
2019-04-22T23:40:38.074Z,9.30
2019-04-22T23:45:01.839Z,9.20
2019-04-22T23:49:38.952Z,9.10
2019-04-22T23:59:37.827Z,9.40
